sensor_id;sensor_type;location;lat;lon;timestamp;P1;durP1;ratioP1;P2;durP2;ratioP2
81523;SDS011;70954;49.500;10.416;2024-02-14T00:01:23;5.03;;;1.98;;
81523;SDS011;70954;49.500;10.416;2024-02-14T00:03:48;3.13;;;2.05;;
81523;SDS011;70954;49.500;10.416;2024-02-14T00:06:14;2.80;;;1.80;;
81523;SDS011;70954;49.500;10.416;2024-02-14T00:08:39;2.00;;;1.48;;
81523;SDS011;70954;49.500;10.416;2024-02-14T00:11:05;3.38;;;1.90;;
81523;SDS011;70954;49.500;10.416;2024-02-14T00:13:30;3.33;;;2.05;;
81523;SDS011;70954;49.500;10.416;2024-02-14T00:15:56;2.70;;;1.77;;
81523;SDS011;70954;49.500;10.416;2024-02-14T00:18:21;2.58;;;1.73;;
81523;SDS011;70954;49.500;10.416;2024-02-14T00:20:47;1.98;;;1.60;;
81523;SDS011;70954;49.500;10.416;2024-02-14T00:23:12;3.30;;;1.70;;
81523;SDS011;70954;49.500;10.416;2024-02-14T00:25:38;3.42;;;1.60;;
81523;SDS011;70954;49.500;10.416;2024-02-14T00:28:03;1.80;;;1.23;;
81523;SDS011;70954;49.500;10.416;2024-02-14T00:30:29;1.90;;;1.52;;
81523;SDS011;70954;49.500;10.416;2024-02-14T00:32:55;1.77;;;1.35;;
81523;SDS011;70954;49.500;10.416;2024-02-14T00:35:20;1.35;;;1.10;;
81523;SDS011;70954;49.500;10.416;2024-02-14T00:37:46;3.53;;;1.67;;
81523;SDS011;70954;49.500;10.416;2024-02-14T00:40:11;1.58;;;1.15;;
81523;SDS011;70954;49.500;10.416;2024-02-14T00:42:37;1.98;;;1.42;;
81523;SDS011;70954;49.500;10.416;2024-02-14T00:45:02;2.08;;;1.55;;
81523;SDS011;70954;49.500;10.416;2024-02-14T00:47:28;1.88;;;1.48;;
81523;SDS011;70954;49.500;10.416;2024-02-14T00:49:54;1.38;;;1.00;;
81523;SDS011;70954;49.500;10.416;2024-02-14T00:52:19;2.03;;;1.42;;
81523;SDS011;70954;49.500;10.416;2024-02-14T00:54:45;1.77;;;1.30;;
81523;SDS011;70954;49.500;10.416;2024-02-14T00:57:10;1.95;;;1.20;;
81523;SDS011;70954;49.500;10.416;2024-02-14T00:59:35;2.83;;;1.20;;
81523;SDS011;70954;49.500;10.416;2024-02-14T01:02:01;1.45;;;1.00;;
81523;SDS011;70954;49.500;10.416;2024-02-14T01:04:26;1.77;;;1.10;;
81523;SDS011;70954;49.500;10.416;2024-02-14T01:06:52;2.10;;;1.33;;
81523;SDS011;70954;49.500;10.416;2024-02-14T01:09:18;0.98;;;0.93;;
81523;SDS011;70954;49.500;10.416;2024-02-14T01:11:44;1.52;;;1.13;;
81523;SDS011;70954;49.500;10.416;2024-02-14T01:14:09;2.10;;;1.55;;
81523;SDS011;70954;49.500;10.416;2024-02-14T01:16:41;1.50;;;1.27;;
81523;SDS011;70954;49.500;10.416;2024-02-14T01:19:10;1.45;;;1.00;;
81523;SDS011;70954;49.500;10.416;2024-02-14T01:21:36;1.55;;;1.00;;
81523;SDS011;70954;49.500;10.416;2024-02-14T01:24:01;1.27;;;1.10;;
81523;SDS011;70954;49.500;10.416;2024-02-14T01:26:27;1.17;;;1.08;;
81523;SDS011;70954;49.500;10.416;2024-02-14T01:28:52;1.27;;;0.95;;
81523;SDS011;70954;49.500;10.416;2024-02-14T01:31:18;1.50;;;1.10;;
81523;SDS011;70954;49.500;10.416;2024-02-14T01:33:43;1.52;;;1.10;;
81523;SDS011;70954;49.500;10.416;2024-02-14T01:36:08;1.55;;;1.15;;
81523;SDS011;70954;49.500;10.416;2024-02-14T01:38:34;1.50;;;1.30;;
81523;SDS011;70954;49.500;10.416;2024-02-14T01:40:59;1.55;;;1.40;;
81523;SDS011;70954;49.500;10.416;2024-02-14T01:43:25;1.83;;;1.20;;
81523;SDS011;70954;49.500;10.416;2024-02-14T01:45:50;1.45;;;1.00;;
81523;SDS011;70954;49.500;10.416;2024-02-14T01:48:16;2.08;;;1.00;;
81523;SDS011;70954;49.500;10.416;2024-02-14T01:50:41;1.20;;;1.05;;
81523;SDS011;70954;49.500;10.416;2024-02-14T01:53:07;1.70;;;1.17;;
81523;SDS011;70954;49.500;10.416;2024-02-14T01:55:33;1.40;;;1.25;;
81523;SDS011;70954;49.500;10.416;2024-02-14T01:57:58;0.95;;;0.80;;
81523;SDS011;70954;49.500;10.416;2024-02-14T02:00:24;1.10;;;1.00;;
81523;SDS011;70954;49.500;10.416;2024-02-14T02:02:50;1.98;;;1.10;;
81523;SDS011;70954;49.500;10.416;2024-02-14T02:05:16;1.30;;;1.00;;
81523;SDS011;70954;49.500;10.416;2024-02-14T02:07:41;1.77;;;1.13;;
81523;SDS011;70954;49.500;10.416;2024-02-14T02:10:07;1.83;;;1.00;;
81523;SDS011;70954;49.500;10.416;2024-02-14T02:12:33;1.38;;;1.27;;
81523;SDS011;70954;49.500;10.416;2024-02-14T02:14:58;1.25;;;1.00;;
81523;SDS011;70954;49.500;10.416;2024-02-14T02:17:24;2.03;;;1.00;;
81523;SDS011;70954;49.500;10.416;2024-02-14T02:19:49;1.20;;;1.00;;
81523;SDS011;70954;49.500;10.416;2024-02-14T02:22:17;2.17;;;0.95;;
81523;SDS011;70954;49.500;10.416;2024-02-14T02:24:43;4.43;;;1.25;;
81523;SDS011;70954;49.500;10.416;2024-02-14T02:27:08;1.13;;;0.90;;
81523;SDS011;70954;49.500;10.416;2024-02-14T02:29:34;1.10;;;0.98;;
81523;SDS011;70954;49.500;10.416;2024-02-14T02:31:59;1.20;;;0.88;;
81523;SDS011;70954;49.500;10.416;2024-02-14T02:34:25;1.75;;;1.08;;
81523;SDS011;70954;49.500;10.416;2024-02-14T02:36:50;2.38;;;1.60;;
81523;SDS011;70954;49.500;10.416;2024-02-14T02:39:15;1.88;;;1.50;;
81523;SDS011;70954;49.500;10.416;2024-02-14T02:41:41;2.22;;;1.60;;
81523;SDS011;70954;49.500;10.416;2024-02-14T02:44:06;1.55;;;1.25;;
81523;SDS011;70954;49.500;10.416;2024-02-14T02:46:32;2.28;;;1.40;;
81523;SDS011;70954;49.500;10.416;2024-02-14T02:48:58;1.60;;;1.10;;
81523;SDS011;70954;49.500;10.416;2024-02-14T02:51:23;1.23;;;1.00;;
81523;SDS011;70954;49.500;10.416;2024-02-14T02:53:49;1.95;;;1.00;;
81523;SDS011;70954;49.500;10.416;2024-02-14T02:56:14;1.52;;;1.33;;
81523;SDS011;70954;49.500;10.416;2024-02-14T02:58:40;1.40;;;1.20;;
81523;SDS011;70954;49.500;10.416;2024-02-14T03:01:09;1.75;;;1.00;;
81523;SDS011;70954;49.500;10.416;2024-02-14T03:03:34;1.25;;;1.15;;
81523;SDS011;70954;49.500;10.416;2024-02-14T03:06:00;3.33;;;1.73;;
81523;SDS011;70954;49.500;10.416;2024-02-14T03:08:25;2.60;;;1.40;;
81523;SDS011;70954;49.500;10.416;2024-02-14T03:10:51;1.70;;;1.20;;
81523;SDS011;70954;49.500;10.416;2024-02-14T03:13:17;1.20;;;0.98;;
81523;SDS011;70954;49.500;10.416;2024-02-14T03:15:42;2.10;;;1.38;;
81523;SDS011;70954;49.500;10.416;2024-02-14T03:18:09;1.77;;;1.00;;
81523;SDS011;70954;49.500;10.416;2024-02-14T03:20:35;3.88;;;1.23;;
81523;SDS011;70954;49.500;10.416;2024-02-14T03:23:01;1.50;;;0.95;;
81523;SDS011;70954;49.500;10.416;2024-02-14T03:25:27;2.15;;;1.30;;
81523;SDS011;70954;49.500;10.416;2024-02-14T03:27:52;1.88;;;1.40;;
81523;SDS011;70954;49.500;10.416;2024-02-14T03:30:18;1.92;;;1.33;;
81523;SDS011;70954;49.500;10.416;2024-02-14T03:32:44;1.40;;;1.30;;
81523;SDS011;70954;49.500;10.416;2024-02-14T03:35:10;1.58;;;1.30;;
81523;SDS011;70954;49.500;10.416;2024-02-14T03:37:35;3.10;;;1.65;;
81523;SDS011;70954;49.500;10.416;2024-02-14T03:40:01;1.80;;;1.33;;
81523;SDS011;70954;49.500;10.416;2024-02-14T03:42:26;1.50;;;1.20;;
81523;SDS011;70954;49.500;10.416;2024-02-14T03:44:52;2.10;;;1.30;;
81523;SDS011;70954;49.500;10.416;2024-02-14T03:47:17;2.38;;;1.30;;
81523;SDS011;70954;49.500;10.416;2024-02-14T03:49:43;1.73;;;1.40;;
81523;SDS011;70954;49.500;10.416;2024-02-14T03:52:08;1.75;;;1.40;;
81523;SDS011;70954;49.500;10.416;2024-02-14T03:54:34;2.13;;;1.20;;
81523;SDS011;70954;49.500;10.416;2024-02-14T03:56:59;1.35;;;1.05;;
81523;SDS011;70954;49.500;10.416;2024-02-14T03:59:24;1.65;;;1.33;;
81523;SDS011;70954;49.500;10.416;2024-02-14T04:01:50;2.00;;;1.00;;
81523;SDS011;70954;49.500;10.416;2024-02-14T04:04:15;1.73;;;1.25;;
81523;SDS011;70954;49.500;10.416;2024-02-14T04:06:41;1.27;;;1.17;;
81523;SDS011;70954;49.500;10.416;2024-02-14T04:09:06;1.23;;;1.00;;
81523;SDS011;70954;49.500;10.416;2024-02-14T04:11:32;1.25;;;0.98;;
81523;SDS011;70954;49.500;10.416;2024-02-14T04:13:57;1.58;;;1.02;;
81523;SDS011;70954;49.500;10.416;2024-02-14T04:16:22;2.38;;;1.27;;
81523;SDS011;70954;49.500;10.416;2024-02-14T04:18:48;1.27;;;1.10;;
81523;SDS011;70954;49.500;10.416;2024-02-14T04:21:13;1.10;;;0.90;;
81523;SDS011;70954;49.500;10.416;2024-02-14T04:23:39;1.98;;;1.00;;
81523;SDS011;70954;49.500;10.416;2024-02-14T04:26:04;2.47;;;1.20;;
81523;SDS011;70954;49.500;10.416;2024-02-14T04:28:30;1.25;;;1.08;;
81523;SDS011;70954;49.500;10.416;2024-02-14T04:30:55;1.95;;;1.10;;
81523;SDS011;70954;49.500;10.416;2024-02-14T04:33:20;1.58;;;0.95;;
81523;SDS011;70954;49.500;10.416;2024-02-14T04:35:47;1.23;;;0.80;;
81523;SDS011;70954;49.500;10.416;2024-02-14T04:38:12;1.45;;;1.02;;
81523;SDS011;70954;49.500;10.416;2024-02-14T04:40:38;1.00;;;0.90;;
81523;SDS011;70954;49.500;10.416;2024-02-14T04:43:04;0.98;;;0.88;;
81523;SDS011;70954;49.500;10.416;2024-02-14T04:45:30;1.48;;;1.00;;
81523;SDS011;70954;49.500;10.416;2024-02-14T04:47:55;1.13;;;0.90;;
81523;SDS011;70954;49.500;10.416;2024-02-14T04:50:21;1.35;;;1.00;;
81523;SDS011;70954;49.500;10.416;2024-02-14T04:52:46;0.80;;;0.70;;
81523;SDS011;70954;49.500;10.416;2024-02-14T04:55:12;1.45;;;0.90;;
81523;SDS011;70954;49.500;10.416;2024-02-14T04:57:37;1.23;;;1.00;;
81523;SDS011;70954;49.500;10.416;2024-02-14T05:00:04;2.78;;;1.00;;
81523;SDS011;70954;49.500;10.416;2024-02-14T05:02:30;1.40;;;0.90;;
81523;SDS011;70954;49.500;10.416;2024-02-14T05:04:55;1.40;;;1.00;;
81523;SDS011;70954;49.500;10.416;2024-02-14T05:07:21;2.55;;;1.30;;
81523;SDS011;70954;49.500;10.416;2024-02-14T05:09:46;1.52;;;0.95;;
81523;SDS011;70954;49.500;10.416;2024-02-14T05:12:12;1.65;;;1.10;;
81523;SDS011;70954;49.500;10.416;2024-02-14T05:14:38;1.30;;;0.90;;
81523;SDS011;70954;49.500;10.416;2024-02-14T05:17:03;0.90;;;0.85;;
81523;SDS011;70954;49.500;10.416;2024-02-14T05:19:29;1.05;;;0.85;;
81523;SDS011;70954;49.500;10.416;2024-02-14T05:21:54;1.20;;;0.90;;
81523;SDS011;70954;49.500;10.416;2024-02-14T05:24:19;1.02;;;0.80;;
81523;SDS011;70954;49.500;10.416;2024-02-14T05:26:45;4.68;;;3.33;;
81523;SDS011;70954;49.500;10.416;2024-02-14T05:29:10;7.78;;;5.18;;
81523;SDS011;70954;49.500;10.416;2024-02-14T05:31:43;5.35;;;3.05;;
81523;SDS011;70954;49.500;10.416;2024-02-14T05:34:09;3.67;;;2.20;;
81523;SDS011;70954;49.500;10.416;2024-02-14T05:36:35;2.28;;;1.40;;
81523;SDS011;70954;49.500;10.416;2024-02-14T05:39:00;1.35;;;1.10;;
81523;SDS011;70954;49.500;10.416;2024-02-14T05:41:25;1.33;;;1.00;;
81523;SDS011;70954;49.500;10.416;2024-02-14T05:43:51;1.23;;;0.95;;
81523;SDS011;70954;49.500;10.416;2024-02-14T05:46:16;1.20;;;0.90;;
81523;SDS011;70954;49.500;10.416;2024-02-14T05:48:42;1.15;;;0.80;;
81523;SDS011;70954;49.500;10.416;2024-02-14T05:51:07;1.27;;;0.80;;
81523;SDS011;70954;49.500;10.416;2024-02-14T05:53:33;1.08;;;0.85;;
81523;SDS011;70954;49.500;10.416;2024-02-14T05:55:58;1.00;;;0.80;;
81523;SDS011;70954;49.500;10.416;2024-02-14T05:58:23;0.95;;;0.80;;
81523;SDS011;70954;49.500;10.416;2024-02-14T06:00:49;1.05;;;0.70;;
81523;SDS011;70954;49.500;10.416;2024-02-14T06:03:14;1.33;;;0.55;;
81523;SDS011;70954;49.500;10.416;2024-02-14T06:05:40;1.40;;;0.70;;
81523;SDS011;70954;49.500;10.416;2024-02-14T06:08:05;1.00;;;0.75;;
81523;SDS011;70954;49.500;10.416;2024-02-14T06:10:31;0.88;;;0.63;;
81523;SDS011;70954;49.500;10.416;2024-02-14T06:12:56;4.30;;;0.77;;
81523;SDS011;70954;49.500;10.416;2024-02-14T06:15:22;0.70;;;0.70;;
81523;SDS011;70954;49.500;10.416;2024-02-14T06:17:47;1.25;;;0.77;;
81523;SDS011;70954;49.500;10.416;2024-02-14T06:20:12;1.17;;;0.70;;
81523;SDS011;70954;49.500;10.416;2024-02-14T06:22:38;1.73;;;0.80;;
81523;SDS011;70954;49.500;10.416;2024-02-14T06:25:03;1.02;;;0.60;;
81523;SDS011;70954;49.500;10.416;2024-02-14T06:27:29;1.42;;;0.60;;
81523;SDS011;70954;49.500;10.416;2024-02-14T06:29:56;0.80;;;0.70;;
81523;SDS011;70954;49.500;10.416;2024-02-14T06:32:21;0.68;;;0.50;;
81523;SDS011;70954;49.500;10.416;2024-02-14T06:34:46;2.40;;;0.80;;
81523;SDS011;70954;49.500;10.416;2024-02-14T06:37:12;2.70;;;0.70;;
81523;SDS011;70954;49.500;10.416;2024-02-14T06:39:37;0.90;;;0.70;;
81523;SDS011;70954;49.500;10.416;2024-02-14T06:42:03;1.80;;;0.85;;
81523;SDS011;70954;49.500;10.416;2024-02-14T06:44:28;0.70;;;0.70;;
81523;SDS011;70954;49.500;10.416;2024-02-14T06:46:54;0.65;;;0.60;;
81523;SDS011;70954;49.500;10.416;2024-02-14T06:49:19;0.60;;;0.52;;
81523;SDS011;70954;49.500;10.416;2024-02-14T06:51:45;1.48;;;0.80;;
81523;SDS011;70954;49.500;10.416;2024-02-14T06:54:10;0.77;;;0.68;;
81523;SDS011;70954;49.500;10.416;2024-02-14T06:56:36;1.10;;;0.70;;
81523;SDS011;70954;49.500;10.416;2024-02-14T06:59:01;1.40;;;0.70;;
81523;SDS011;70954;49.500;10.416;2024-02-14T07:01:27;1.65;;;1.00;;
81523;SDS011;70954;49.500;10.416;2024-02-14T07:03:52;3.47;;;1.48;;
81523;SDS011;70954;49.500;10.416;2024-02-14T07:06:18;1.02;;;0.80;;
81523;SDS011;70954;49.500;10.416;2024-02-14T07:08:43;1.02;;;0.63;;
81523;SDS011;70954;49.500;10.416;2024-02-14T07:11:09;1.13;;;0.70;;
81523;SDS011;70954;49.500;10.416;2024-02-14T07:13:34;1.00;;;0.80;;
81523;SDS011;70954;49.500;10.416;2024-02-14T07:16:00;1.05;;;0.65;;
81523;SDS011;70954;49.500;10.416;2024-02-14T07:18:26;1.02;;;0.50;;
81523;SDS011;70954;49.500;10.416;2024-02-14T07:20:51;0.68;;;0.68;;
81523;SDS011;70954;49.500;10.416;2024-02-14T07:23:18;1.42;;;0.93;;
81523;SDS011;70954;49.500;10.416;2024-02-14T07:25:43;0.95;;;0.70;;
81523;SDS011;70954;49.500;10.416;2024-02-14T07:28:09;1.45;;;0.77;;
81523;SDS011;70954;49.500;10.416;2024-02-14T07:30:34;1.10;;;0.85;;
81523;SDS011;70954;49.500;10.416;2024-02-14T07:33:00;2.00;;;0.70;;
81523;SDS011;70954;49.500;10.416;2024-02-14T07:35:25;0.60;;;0.60;;
81523;SDS011;70954;49.500;10.416;2024-02-14T07:37:51;2.03;;;1.23;;
81523;SDS011;70954;49.500;10.416;2024-02-14T07:40:16;1.85;;;1.00;;
81523;SDS011;70954;49.500;10.416;2024-02-14T07:42:41;1.13;;;0.70;;
81523;SDS011;70954;49.500;10.416;2024-02-14T07:45:07;0.80;;;0.60;;
81523;SDS011;70954;49.500;10.416;2024-02-14T07:47:33;0.75;;;0.70;;
81523;SDS011;70954;49.500;10.416;2024-02-14T07:49:58;1.80;;;0.60;;
81523;SDS011;70954;49.500;10.416;2024-02-14T07:52:24;1.58;;;0.60;;
81523;SDS011;70954;49.500;10.416;2024-02-14T07:54:52;0.80;;;0.60;;
81523;SDS011;70954;49.500;10.416;2024-02-14T07:57:18;0.73;;;0.65;;
81523;SDS011;70954;49.500;10.416;2024-02-14T07:59:43;2.17;;;1.27;;
81523;SDS011;70954;49.500;10.416;2024-02-14T08:02:09;1.00;;;0.70;;
81523;SDS011;70954;49.500;10.416;2024-02-14T08:04:34;2.38;;;0.85;;
81523;SDS011;70954;49.500;10.416;2024-02-14T08:07:00;0.95;;;0.60;;
81523;SDS011;70954;49.500;10.416;2024-02-14T08:09:25;2.70;;;0.80;;
81523;SDS011;70954;49.500;10.416;2024-02-14T08:11:51;0.80;;;0.50;;
81523;SDS011;70954;49.500;10.416;2024-02-14T08:14:16;1.08;;;0.57;;
81523;SDS011;70954;49.500;10.416;2024-02-14T08:16:41;1.23;;;0.88;;
81523;SDS011;70954;49.500;10.416;2024-02-14T08:19:07;1.00;;;0.63;;
81523;SDS011;70954;49.500;10.416;2024-02-14T08:21:32;0.95;;;0.65;;
81523;SDS011;70954;49.500;10.416;2024-02-14T08:23:58;0.73;;;0.70;;
81523;SDS011;70954;49.500;10.416;2024-02-14T08:26:23;0.85;;;0.57;;
81523;SDS011;70954;49.500;10.416;2024-02-14T08:28:49;1.60;;;0.77;;
81523;SDS011;70954;49.500;10.416;2024-02-14T08:31:15;0.70;;;0.70;;
81523;SDS011;70954;49.500;10.416;2024-02-14T08:33:40;1.08;;;0.70;;
81523;SDS011;70954;49.500;10.416;2024-02-14T08:36:06;0.50;;;0.40;;
81523;SDS011;70954;49.500;10.416;2024-02-14T08:38:32;1.10;;;0.50;;
81523;SDS011;70954;49.500;10.416;2024-02-14T08:40:58;0.52;;;0.52;;
81523;SDS011;70954;49.500;10.416;2024-02-14T08:43:23;2.13;;;0.60;;
81523;SDS011;70954;49.500;10.416;2024-02-14T08:45:49;1.48;;;0.65;;
81523;SDS011;70954;49.500;10.416;2024-02-14T08:48:14;0.43;;;0.43;;
81523;SDS011;70954;49.500;10.416;2024-02-14T08:50:40;5.75;;;0.70;;
81523;SDS011;70954;49.500;10.416;2024-02-14T08:53:05;1.83;;;0.90;;
81523;SDS011;70954;49.500;10.416;2024-02-14T08:55:31;1.30;;;0.80;;
81523;SDS011;70954;49.500;10.416;2024-02-14T08:57:56;1.88;;;0.60;;
81523;SDS011;70954;49.500;10.416;2024-02-14T09:00:21;1.05;;;0.75;;
81523;SDS011;70954;49.500;10.416;2024-02-14T09:02:47;0.77;;;0.70;;
81523;SDS011;70954;49.500;10.416;2024-02-14T09:05:13;1.42;;;0.65;;
81523;SDS011;70954;49.500;10.416;2024-02-14T09:07:39;0.50;;;0.50;;
81523;SDS011;70954;49.500;10.416;2024-02-14T09:10:04;2.17;;;0.63;;
81523;SDS011;70954;49.500;10.416;2024-02-14T09:12:30;1.13;;;0.60;;
81523;SDS011;70954;49.500;10.416;2024-02-14T09:14:55;2.35;;;0.95;;
81523;SDS011;70954;49.500;10.416;2024-02-14T09:17:21;1.20;;;0.70;;
81523;SDS011;70954;49.500;10.416;2024-02-14T09:19:46;1.40;;;0.60;;
81523;SDS011;70954;49.500;10.416;2024-02-14T09:22:12;2.22;;;0.82;;
81523;SDS011;70954;49.500;10.416;2024-02-14T09:24:37;0.70;;;0.50;;
81523;SDS011;70954;49.500;10.416;2024-02-14T09:27:02;2.33;;;0.77;;
81523;SDS011;70954;49.500;10.416;2024-02-14T09:29:28;1.40;;;0.88;;
81523;SDS011;70954;49.500;10.416;2024-02-14T09:31:54;1.17;;;0.80;;
81523;SDS011;70954;49.500;10.416;2024-02-14T09:34:19;3.00;;;0.60;;
81523;SDS011;70954;49.500;10.416;2024-02-14T09:36:45;2.58;;;0.80;;
81523;SDS011;70954;49.500;10.416;2024-02-14T09:39:12;0.80;;;0.77;;
81523;SDS011;70954;49.500;10.416;2024-02-14T09:41:40;1.02;;;0.68;;
81523;SDS011;70954;49.500;10.416;2024-02-14T09:44:06;2.13;;;1.00;;
81523;SDS011;70954;49.500;10.416;2024-02-14T09:46:32;3.70;;;1.27;;
81523;SDS011;70954;49.500;10.416;2024-02-14T09:49:01;1.63;;;0.80;;
81523;SDS011;70954;49.500;10.416;2024-02-14T09:51:28;1.50;;;0.90;;
81523;SDS011;70954;49.500;10.416;2024-02-14T09:53:54;1.30;;;0.77;;
81523;SDS011;70954;49.500;10.416;2024-02-14T09:56:20;1.85;;;0.90;;
81523;SDS011;70954;49.500;10.416;2024-02-14T09:58:46;1.20;;;0.90;;
81523;SDS011;70954;49.500;10.416;2024-02-14T10:01:13;1.40;;;0.90;;
81523;SDS011;70954;49.500;10.416;2024-02-14T10:03:39;1.60;;;0.90;;
81523;SDS011;70954;49.500;10.416;2024-02-14T10:06:04;1.83;;;0.90;;
81523;SDS011;70954;49.500;10.416;2024-02-14T10:08:30;1.13;;;0.63;;
81523;SDS011;70954;49.500;10.416;2024-02-14T10:10:56;1.80;;;0.70;;
81523;SDS011;70954;49.500;10.416;2024-02-14T10:13:22;1.27;;;0.70;;
81523;SDS011;70954;49.500;10.416;2024-02-14T10:15:47;2.13;;;0.90;;
81523;SDS011;70954;49.500;10.416;2024-02-14T10:18:14;1.65;;;0.85;;
81523;SDS011;70954;49.500;10.416;2024-02-14T10:20:39;1.50;;;0.70;;
81523;SDS011;70954;49.500;10.416;2024-02-14T10:23:05;1.13;;;0.70;;
81523;SDS011;70954;49.500;10.416;2024-02-14T10:25:30;1.77;;;0.88;;
81523;SDS011;70954;49.500;10.416;2024-02-14T10:27:56;2.22;;;0.90;;
81523;SDS011;70954;49.500;10.416;2024-02-14T10:30:21;1.88;;;0.80;;
81523;SDS011;70954;49.500;10.416;2024-02-14T10:32:47;1.50;;;0.80;;
81523;SDS011;70954;49.500;10.416;2024-02-14T10:35:13;1.83;;;1.10;;
81523;SDS011;70954;49.500;10.416;2024-02-14T10:37:39;2.35;;;1.00;;
81523;SDS011;70954;49.500;10.416;2024-02-14T10:40:05;3.95;;;1.27;;
81523;SDS011;70954;49.500;10.416;2024-02-14T10:42:31;1.40;;;0.90;;
81523;SDS011;70954;49.500;10.416;2024-02-14T10:44:57;1.33;;;0.70;;
81523;SDS011;70954;49.500;10.416;2024-02-14T10:47:24;1.40;;;0.70;;
81523;SDS011;70954;49.500;10.416;2024-02-14T10:49:54;2.78;;;0.93;;
81523;SDS011;70954;49.500;10.416;2024-02-14T10:52:30;1.17;;;0.82;;
81523;SDS011;70954;49.500;10.416;2024-02-14T10:54:58;1.30;;;0.80;;
81523;SDS011;70954;49.500;10.416;2024-02-14T10:57:26;1.58;;;0.90;;
81523;SDS011;70954;49.500;10.416;2024-02-14T10:59:53;1.83;;;1.02;;
81523;SDS011;70954;49.500;10.416;2024-02-14T11:02:19;2.90;;;0.85;;
81523;SDS011;70954;49.500;10.416;2024-02-14T11:04:45;1.40;;;0.80;;
81523;SDS011;70954;49.500;10.416;2024-02-14T11:07:11;1.40;;;0.80;;
81523;SDS011;70954;49.500;10.416;2024-02-14T11:09:36;2.13;;;0.90;;
81523;SDS011;70954;49.500;10.416;2024-02-14T11:12:02;1.77;;;0.88;;
81523;SDS011;70954;49.500;10.416;2024-02-14T11:14:34;2.63;;;0.60;;
81523;SDS011;70954;49.500;10.416;2024-02-14T11:17:00;2.25;;;0.98;;
81523;SDS011;70954;49.500;10.416;2024-02-14T11:19:33;0.80;;;0.70;;
81523;SDS011;70954;49.500;10.416;2024-02-14T11:21:58;2.55;;;0.95;;
81523;SDS011;70954;49.500;10.416;2024-02-14T11:24:26;1.38;;;0.80;;
81523;SDS011;70954;49.500;10.416;2024-02-14T11:26:54;2.55;;;1.02;;
81523;SDS011;70954;49.500;10.416;2024-02-14T11:29:20;1.98;;;0.80;;
81523;SDS011;70954;49.500;10.416;2024-02-14T11:31:59;1.50;;;0.70;;
81523;SDS011;70954;49.500;10.416;2024-02-14T11:34:25;1.50;;;0.80;;
81523;SDS011;70954;49.500;10.416;2024-02-14T11:36:51;1.48;;;0.63;;
81523;SDS011;70954;49.500;10.416;2024-02-14T11:39:17;1.23;;;0.80;;
81523;SDS011;70954;49.500;10.416;2024-02-14T11:41:42;2.17;;;0.90;;
81523;SDS011;70954;49.500;10.416;2024-02-14T11:44:08;2.70;;;1.00;;
81523;SDS011;70954;49.500;10.416;2024-02-14T11:46:36;2.85;;;0.90;;
81523;SDS011;70954;49.500;10.416;2024-02-14T11:49:03;1.50;;;0.80;;
81523;SDS011;70954;49.500;10.416;2024-02-14T11:51:30;1.27;;;0.88;;
81523;SDS011;70954;49.500;10.416;2024-02-14T11:53:57;2.38;;;1.00;;
81523;SDS011;70954;49.500;10.416;2024-02-14T11:56:23;2.38;;;1.00;;
81523;SDS011;70954;49.500;10.416;2024-02-14T11:58:49;2.15;;;1.20;;
81523;SDS011;70954;49.500;10.416;2024-02-14T12:01:16;1.33;;;0.90;;
81523;SDS011;70954;49.500;10.416;2024-02-14T12:03:42;3.33;;;1.15;;
81523;SDS011;70954;49.500;10.416;2024-02-14T12:06:08;1.73;;;0.85;;
81523;SDS011;70954;49.500;10.416;2024-02-14T12:08:34;2.45;;;0.80;;
81523;SDS011;70954;49.500;10.416;2024-02-14T12:11:00;2.75;;;1.00;;
81523;SDS011;70954;49.500;10.416;2024-02-14T12:13:26;1.58;;;0.80;;
81523;SDS011;70954;49.500;10.416;2024-02-14T12:15:51;2.97;;;1.02;;
81523;SDS011;70954;49.500;10.416;2024-02-14T12:18:18;1.25;;;0.80;;
81523;SDS011;70954;49.500;10.416;2024-02-14T12:20:44;1.40;;;0.70;;
81523;SDS011;70954;49.500;10.416;2024-02-14T12:23:13;1.95;;;0.80;;
81523;SDS011;70954;49.500;10.416;2024-02-14T12:25:40;2.15;;;0.90;;
81523;SDS011;70954;49.500;10.416;2024-02-14T12:28:05;1.63;;;0.80;;
81523;SDS011;70954;49.500;10.416;2024-02-14T12:30:44;1.20;;;0.80;;
81523;SDS011;70954;49.500;10.416;2024-02-14T12:33:14;1.80;;;0.73;;
81523;SDS011;70954;49.500;10.416;2024-02-14T12:35:43;1.00;;;0.77;;
81523;SDS011;70954;49.500;10.416;2024-02-14T12:38:10;1.80;;;0.80;;
81523;SDS011;70954;49.500;10.416;2024-02-14T12:40:36;3.10;;;0.90;;
81523;SDS011;70954;49.500;10.416;2024-02-14T12:43:02;1.75;;;1.00;;
81523;SDS011;70954;49.500;10.416;2024-02-14T12:45:28;1.20;;;0.88;;
81523;SDS011;70954;49.500;10.416;2024-02-14T12:47:54;1.10;;;0.60;;
81523;SDS011;70954;49.500;10.416;2024-02-14T12:50:19;0.98;;;0.70;;
81523;SDS011;70954;49.500;10.416;2024-02-14T12:52:45;2.70;;;0.80;;
81523;SDS011;70954;49.500;10.416;2024-02-14T12:55:11;1.33;;;0.93;;
81523;SDS011;70954;49.500;10.416;2024-02-14T12:57:37;0.88;;;0.70;;
81523;SDS011;70954;49.500;10.416;2024-02-14T13:00:02;1.30;;;0.90;;
81523;SDS011;70954;49.500;10.416;2024-02-14T13:02:28;0.90;;;0.70;;
81523;SDS011;70954;49.500;10.416;2024-02-14T13:04:53;1.33;;;0.80;;
81523;SDS011;70954;49.500;10.416;2024-02-14T13:07:19;1.70;;;0.80;;
81523;SDS011;70954;49.500;10.416;2024-02-14T13:09:44;1.80;;;0.70;;
81523;SDS011;70954;49.500;10.416;2024-02-14T13:12:10;0.77;;;0.68;;
81523;SDS011;70954;49.500;10.416;2024-02-14T13:14:35;0.90;;;0.70;;
81523;SDS011;70954;49.500;10.416;2024-02-14T13:17:00;1.45;;;0.98;;
81523;SDS011;70954;49.500;10.416;2024-02-14T13:19:26;1.15;;;0.60;;
81523;SDS011;70954;49.500;10.416;2024-02-14T13:21:51;0.80;;;0.70;;
81523;SDS011;70954;49.500;10.416;2024-02-14T13:24:17;1.10;;;0.60;;
81523;SDS011;70954;49.500;10.416;2024-02-14T13:26:42;0.80;;;0.55;;
81523;SDS011;70954;49.500;10.416;2024-02-14T13:29:08;1.00;;;0.63;;
81523;SDS011;70954;49.500;10.416;2024-02-14T13:31:33;0.80;;;0.60;;
81523;SDS011;70954;49.500;10.416;2024-02-14T13:33:58;1.45;;;0.70;;
81523;SDS011;70954;49.500;10.416;2024-02-14T13:36:24;1.58;;;0.80;;
81523;SDS011;70954;49.500;10.416;2024-02-14T13:38:49;1.45;;;0.70;;
81523;SDS011;70954;49.500;10.416;2024-02-14T13:41:15;1.30;;;0.63;;
81523;SDS011;70954;49.500;10.416;2024-02-14T13:43:40;0.85;;;0.50;;
81523;SDS011;70954;49.500;10.416;2024-02-14T13:46:06;0.95;;;0.50;;
81523;SDS011;70954;49.500;10.416;2024-02-14T13:48:31;1.40;;;0.63;;
81523;SDS011;70954;49.500;10.416;2024-02-14T13:50:56;0.77;;;0.50;;
81523;SDS011;70954;49.500;10.416;2024-02-14T13:53:22;1.23;;;0.70;;
81523;SDS011;70954;49.500;10.416;2024-02-14T13:55:47;1.67;;;0.70;;
81523;SDS011;70954;49.500;10.416;2024-02-14T13:58:13;0.90;;;0.52;;
81523;SDS011;70954;49.500;10.416;2024-02-14T14:00:38;0.60;;;0.55;;
81523;SDS011;70954;49.500;10.416;2024-02-14T14:03:04;1.25;;;0.70;;
81523;SDS011;70954;49.500;10.416;2024-02-14T14:05:29;0.40;;;0.40;;
81523;SDS011;70954;49.500;10.416;2024-02-14T14:07:55;0.85;;;0.50;;
81523;SDS011;70954;49.500;10.416;2024-02-14T14:10:20;0.55;;;0.50;;
81523;SDS011;70954;49.500;10.416;2024-02-14T14:12:46;0.88;;;0.68;;
81523;SDS011;70954;49.500;10.416;2024-02-14T14:15:11;0.70;;;0.70;;
81523;SDS011;70954;49.500;10.416;2024-02-14T14:17:36;0.70;;;0.70;;
81523;SDS011;70954;49.500;10.416;2024-02-14T14:20:02;1.02;;;0.70;;
81523;SDS011;70954;49.500;10.416;2024-02-14T14:22:28;0.70;;;0.60;;
81523;SDS011;70954;49.500;10.416;2024-02-14T14:24:53;1.85;;;0.70;;